sensor_id;sensor_type;location;lat;lon;timestamp;P1;durP1;ratioP1;P2;durP2;ratioP2
69900;SDS011;57183;50.930;5.406;2022-11-20T00:00:55;21.95;;;13.88;;
69900;SDS011;57183;50.930;5.406;2022-11-20T00:03:21;22.35;;;13.77;;
69900;SDS011;57183;50.930;5.406;2022-11-20T00:05:48;23.77;;;14.05;;
69900;SDS011;57183;50.930;5.406;2022-11-20T00:08:13;20.65;;;13.82;;
69900;SDS011;57183;50.930;5.406;2022-11-20T00:10:39;23.42;;;15.18;;
69900;SDS011;57183;50.930;5.406;2022-11-20T00:13:06;23.00;;;15.15;;
69900;SDS011;57183;50.930;5.406;2022-11-20T00:15:32;27.77;;;16.10;;
69900;SDS011;57183;50.930;5.406;2022-11-20T00:17:58;19.40;;;13.60;;
69900;SDS011;57183;50.930;5.406;2022-11-20T00:20:24;26.20;;;15.27;;
69900;SDS011;57183;50.930;5.406;2022-11-20T00:22:50;24.50;;;14.32;;
69900;SDS011;57183;50.930;5.406;2022-11-20T00:25:16;24.42;;;14.27;;
69900;SDS011;57183;50.930;5.406;2022-11-20T00:27:42;27.25;;;14.98;;
69900;SDS011;57183;50.930;5.406;2022-11-20T00:30:08;29.35;;;16.77;;
69900;SDS011;57183;50.930;5.406;2022-11-20T00:32:34;24.55;;;15.15;;
69900;SDS011;57183;50.930;5.406;2022-11-20T00:35:00;20.02;;;12.35;;
69900;SDS011;57183;50.930;5.406;2022-11-20T00:37:25;23.98;;;12.95;;
69900;SDS011;57183;50.930;5.406;2022-11-20T00:39:51;24.10;;;15.23;;
69900;SDS011;57183;50.930;5.406;2022-11-20T00:42:17;20.27;;;14.02;;
69900;SDS011;57183;50.930;5.406;2022-11-20T00:44:43;23.90;;;15.07;;
69900;SDS011;57183;50.930;5.406;2022-11-20T00:47:08;25.80;;;16.33;;
69900;SDS011;57183;50.930;5.406;2022-11-20T00:49:34;21.92;;;14.75;;
69900;SDS011;57183;50.930;5.406;2022-11-20T00:52:00;25.15;;;15.35;;
69900;SDS011;57183;50.930;5.406;2022-11-20T00:54:25;26.15;;;15.13;;
69900;SDS011;57183;50.930;5.406;2022-11-20T00:56:54;24.80;;;15.80;;
69900;SDS011;57183;50.930;5.406;2022-11-20T00:59:20;25.33;;;16.08;;
69900;SDS011;57183;50.930;5.406;2022-11-20T01:01:45;25.05;;;15.60;;
69900;SDS011;57183;50.930;5.406;2022-11-20T01:04:11;23.10;;;14.55;;
69900;SDS011;57183;50.930;5.406;2022-11-20T01:06:37;27.20;;;16.60;;
69900;SDS011;57183;50.930;5.406;2022-11-20T01:09:05;23.63;;;15.52;;
69900;SDS011;57183;50.930;5.406;2022-11-20T01:11:34;24.30;;;15.52;;
69900;SDS011;57183;50.930;5.406;2022-11-20T01:14:03;29.00;;;16.95;;
69900;SDS011;57183;50.930;5.406;2022-11-20T01:16:35;29.33;;;17.35;;
69900;SDS011;57183;50.930;5.406;2022-11-20T01:19:03;33.97;;;16.50;;
69900;SDS011;57183;50.930;5.406;2022-11-20T01:21:32;30.23;;;17.52;;
69900;SDS011;57183;50.930;5.406;2022-11-20T01:24:03;30.95;;;18.00;;
69900;SDS011;57183;50.930;5.406;2022-11-20T01:26:30;27.58;;;15.57;;
69900;SDS011;57183;50.930;5.406;2022-11-20T01:28:58;29.20;;;16.27;;
69900;SDS011;57183;50.930;5.406;2022-11-20T01:33:52;25.75;;;15.98;;
69900;SDS011;57183;50.930;5.406;2022-11-20T01:36:20;22.42;;;15.88;;
69900;SDS011;57183;50.930;5.406;2022-11-20T01:38:47;26.65;;;16.20;;
69900;SDS011;57183;50.930;5.406;2022-11-20T01:41:15;24.42;;;15.30;;
69900;SDS011;57183;50.930;5.406;2022-11-20T01:44:00;19.85;;;11.48;;
69900;SDS011;57183;50.930;5.406;2022-11-20T01:46:26;24.77;;;15.15;;
69900;SDS011;57183;50.930;5.406;2022-11-20T01:52:01;29.05;;;17.67;;
69900;SDS011;57183;50.930;5.406;2022-11-20T01:54:23;29.13;;;17.88;;
69900;SDS011;57183;50.930;5.406;2022-11-20T01:56:55;26.23;;;16.67;;
69900;SDS011;57183;50.930;5.406;2022-11-20T01:59:21;25.98;;;17.00;;
69900;SDS011;57183;50.930;5.406;2022-11-20T02:01:50;25.88;;;16.17;;
69900;SDS011;57183;50.930;5.406;2022-11-20T02:04:16;26.92;;;18.13;;
69900;SDS011;57183;50.930;5.406;2022-11-20T02:07:01;24.35;;;16.98;;
69900;SDS011;57183;50.930;5.406;2022-11-20T02:09:29;25.30;;;15.63;;
69900;SDS011;57183;50.930;5.406;2022-11-20T02:11:55;22.55;;;16.20;;
69900;SDS011;57183;50.930;5.406;2022-11-20T02:14:22;25.85;;;16.83;;
69900;SDS011;57183;50.930;5.406;2022-11-20T02:16:49;26.17;;;16.05;;
69900;SDS011;57183;50.930;5.406;2022-11-20T02:19:21;22.65;;;15.40;;
69900;SDS011;57183;50.930;5.406;2022-11-20T02:22:04;24.10;;;15.95;;
69900;SDS011;57183;50.930;5.406;2022-11-20T02:24:44;23.02;;;14.65;;
69900;SDS011;57183;50.930;5.406;2022-11-20T02:27:12;26.85;;;16.90;;
69900;SDS011;57183;50.930;5.406;2022-11-20T02:29:40;25.10;;;15.52;;
69900;SDS011;57183;50.930;5.406;2022-11-20T02:32:17;25.73;;;15.93;;
69900;SDS011;57183;50.930;5.406;2022-11-20T02:34:44;21.20;;;13.77;;
69900;SDS011;57183;50.930;5.406;2022-11-20T02:37:09;26.23;;;17.17;;
69900;SDS011;57183;50.930;5.406;2022-11-20T02:39:35;19.98;;;14.18;;
69900;SDS011;57183;50.930;5.406;2022-11-20T02:42:01;21.10;;;14.73;;
69900;SDS011;57183;50.930;5.406;2022-11-20T02:44:27;25.63;;;15.60;;
69900;SDS011;57183;50.930;5.406;2022-11-20T02:46:53;20.55;;;15.00;;
69900;SDS011;57183;50.930;5.406;2022-11-20T02:49:21;22.00;;;15.85;;
69900;SDS011;57183;50.930;5.406;2022-11-20T02:51:47;24.08;;;16.48;;
69900;SDS011;57183;50.930;5.406;2022-11-20T02:54:12;24.83;;;16.45;;
69900;SDS011;57183;50.930;5.406;2022-11-20T02:56:38;31.25;;;17.00;;
69900;SDS011;57183;50.930;5.406;2022-11-20T02:59:04;22.85;;;15.85;;
69900;SDS011;57183;50.930;5.406;2022-11-20T03:01:30;21.65;;;14.93;;
69900;SDS011;57183;50.930;5.406;2022-11-20T03:03:56;22.60;;;16.00;;
69900;SDS011;57183;50.930;5.406;2022-11-20T03:06:22;28.02;;;17.17;;
69900;SDS011;57183;50.930;5.406;2022-11-20T03:08:47;21.65;;;14.70;;
69900;SDS011;57183;50.930;5.406;2022-11-20T03:11:13;22.35;;;15.40;;
69900;SDS011;57183;50.930;5.406;2022-11-20T03:13:39;22.95;;;15.55;;
69900;SDS011;57183;50.930;5.406;2022-11-20T03:16:08;21.42;;;15.20;;
69900;SDS011;57183;50.930;5.406;2022-11-20T03:18:39;20.85;;;14.43;;
69900;SDS011;57183;50.930;5.406;2022-11-20T03:21:05;26.60;;;17.15;;
69900;SDS011;57183;50.930;5.406;2022-11-20T03:23:32;22.60;;;15.98;;
69900;SDS011;57183;50.930;5.406;2022-11-20T03:28:54;24.10;;;16.25;;
69900;SDS011;57183;50.930;5.406;2022-11-20T03:31:23;26.02;;;16.08;;
69900;SDS011;57183;50.930;5.406;2022-11-20T03:33:52;21.92;;;15.45;;
69900;SDS011;57183;50.930;5.406;2022-11-20T03:36:18;24.52;;;16.63;;
69900;SDS011;57183;50.930;5.406;2022-11-20T03:38:46;22.42;;;15.07;;
69900;SDS011;57183;50.930;5.406;2022-11-20T03:41:14;26.38;;;16.52;;
69900;SDS011;57183;50.930;5.406;2022-11-20T03:43:51;26.52;;;16.75;;
69900;SDS011;57183;50.930;5.406;2022-11-20T03:46:19;23.67;;;16.03;;
69900;SDS011;57183;50.930;5.406;2022-11-20T03:48:45;24.70;;;15.98;;
69900;SDS011;57183;50.930;5.406;2022-11-20T03:51:12;22.98;;;15.77;;
69900;SDS011;57183;50.930;5.406;2022-11-20T03:53:41;26.23;;;16.35;;
69900;SDS011;57183;50.930;5.406;2022-11-20T03:56:09;25.77;;;16.75;;
69900;SDS011;57183;50.930;5.406;2022-11-20T03:58:35;27.23;;;16.52;;
69900;SDS011;57183;50.930;5.406;2022-11-20T04:01:07;22.77;;;15.48;;
69900;SDS011;57183;50.930;5.406;2022-11-20T04:03:41;23.58;;;15.55;;
69900;SDS011;57183;50.930;5.406;2022-11-20T04:06:18;28.50;;;16.95;;
69900;SDS011;57183;50.930;5.406;2022-11-20T04:08:48;27.70;;;17.30;;
69900;SDS011;57183;50.930;5.406;2022-11-20T04:11:15;23.58;;;15.75;;
69900;SDS011;57183;50.930;5.406;2022-11-20T04:13:47;22.27;;;15.50;;
69900;SDS011;57183;50.930;5.406;2022-11-20T04:16:14;20.98;;;15.20;;
69900;SDS011;57183;50.930;5.406;2022-11-20T04:18:41;24.88;;;15.38;;
69900;SDS011;57183;50.930;5.406;2022-11-20T04:21:06;26.58;;;16.58;;
69900;SDS011;57183;50.930;5.406;2022-11-20T04:23:32;21.92;;;14.95;;
69900;SDS011;57183;50.930;5.406;2022-11-20T04:26:09;24.55;;;16.63;;
69900;SDS011;57183;50.930;5.406;2022-11-20T04:28:36;24.55;;;16.83;;
69900;SDS011;57183;50.930;5.406;2022-11-20T04:31:06;24.52;;;15.40;;
69900;SDS011;57183;50.930;5.406;2022-11-20T04:33:34;23.88;;;15.48;;
69900;SDS011;57183;50.930;5.406;2022-11-20T04:36:01;24.33;;;15.85;;
69900;SDS011;57183;50.930;5.406;2022-11-20T04:38:28;24.50;;;16.05;;
69900;SDS011;57183;50.930;5.406;2022-11-20T04:40:58;24.02;;;15.75;;
69900;SDS011;57183;50.930;5.406;2022-11-20T04:43:25;24.33;;;15.85;;
69900;SDS011;57183;50.930;5.406;2022-11-20T04:45:54;28.35;;;16.67;;
69900;SDS011;57183;50.930;5.406;2022-11-20T04:48:21;21.85;;;13.23;;
69900;SDS011;57183;50.930;5.406;2022-11-20T04:50:46;27.20;;;16.67;;
69900;SDS011;57183;50.930;5.406;2022-11-20T04:53:12;27.83;;;14.55;;
69900;SDS011;57183;50.930;5.406;2022-11-20T04:55:39;21.90;;;14.93;;
69900;SDS011;57183;50.930;5.406;2022-11-20T04:58:05;22.73;;;13.68;;
69900;SDS011;57183;50.930;5.406;2022-11-20T05:00:31;28.48;;;15.55;;
69900;SDS011;57183;50.930;5.406;2022-11-20T05:02:56;28.77;;;16.58;;
69900;SDS011;57183;50.930;5.406;2022-11-20T05:05:22;26.75;;;15.48;;
69900;SDS011;57183;50.930;5.406;2022-11-20T05:07:48;24.38;;;15.40;;
69900;SDS011;57183;50.930;5.406;2022-11-20T05:10:14;30.17;;;16.45;;
69900;SDS011;57183;50.930;5.406;2022-11-20T05:12:40;31.35;;;16.45;;
69900;SDS011;57183;50.930;5.406;2022-11-20T05:15:05;32.15;;;17.92;;
69900;SDS011;57183;50.930;5.406;2022-11-20T05:17:31;34.08;;;16.83;;
69900;SDS011;57183;50.930;5.406;2022-11-20T05:19:57;32.13;;;17.25;;
69900;SDS011;57183;50.930;5.406;2022-11-20T05:22:23;40.15;;;18.05;;
69900;SDS011;57183;50.930;5.406;2022-11-20T05:24:48;35.03;;;19.08;;
69900;SDS011;57183;50.930;5.406;2022-11-20T05:27:14;35.13;;;18.35;;
69900;SDS011;57183;50.930;5.406;2022-11-20T05:29:40;36.08;;;18.83;;
69900;SDS011;57183;50.930;5.406;2022-11-20T05:32:05;40.42;;;18.73;;
69900;SDS011;57183;50.930;5.406;2022-11-20T05:34:34;42.40;;;19.02;;
69900;SDS011;57183;50.930;5.406;2022-11-20T05:36:59;35.08;;;18.42;;
69900;SDS011;57183;50.930;5.406;2022-11-20T05:39:25;47.42;;;19.77;;
69900;SDS011;57183;50.930;5.406;2022-11-20T05:41:50;38.92;;;18.50;;
69900;SDS011;57183;50.930;5.406;2022-11-20T05:44:36;36.45;;;18.80;;
69900;SDS011;57183;50.930;5.406;2022-11-20T05:47:02;33.33;;;17.77;;
69900;SDS011;57183;50.930;5.406;2022-11-20T05:49:27;33.45;;;18.00;;
69900;SDS011;57183;50.930;5.406;2022-11-20T05:51:53;38.88;;;20.95;;
69900;SDS011;57183;50.930;5.406;2022-11-20T05:54:19;36.22;;;18.73;;
69900;SDS011;57183;50.930;5.406;2022-11-20T05:56:44;46.72;;;20.80;;
69900;SDS011;57183;50.930;5.406;2022-11-20T05:59:10;34.28;;;18.27;;
69900;SDS011;57183;50.930;5.406;2022-11-20T06:01:35;31.83;;;18.90;;
69900;SDS011;57183;50.930;5.406;2022-11-20T06:04:01;34.42;;;19.63;;
69900;SDS011;57183;50.930;5.406;2022-11-20T06:06:27;37.80;;;18.80;;
69900;SDS011;57183;50.930;5.406;2022-11-20T06:08:54;34.30;;;19.20;;
69900;SDS011;57183;50.930;5.406;2022-11-20T06:11:20;36.47;;;19.25;;
69900;SDS011;57183;50.930;5.406;2022-11-20T06:13:46;37.95;;;18.00;;
69900;SDS011;57183;50.930;5.406;2022-11-20T06:16:13;31.75;;;17.60;;
69900;SDS011;57183;50.930;5.406;2022-11-20T06:18:40;34.60;;;17.85;;
69900;SDS011;57183;50.930;5.406;2022-11-20T06:21:07;38.03;;;19.02;;
69900;SDS011;57183;50.930;5.406;2022-11-20T06:23:34;32.38;;;17.40;;
69900;SDS011;57183;50.930;5.406;2022-11-20T06:26:02;37.80;;;17.83;;
69900;SDS011;57183;50.930;5.406;2022-11-20T06:28:38;32.40;;;17.85;;
69900;SDS011;57183;50.930;5.406;2022-11-20T06:31:04;39.75;;;19.67;;
69900;SDS011;57183;50.930;5.406;2022-11-20T06:33:30;36.72;;;19.20;;
69900;SDS011;57183;50.930;5.406;2022-11-20T06:35:56;37.65;;;18.60;;
69900;SDS011;57183;50.930;5.406;2022-11-20T06:38:24;34.30;;;18.20;;
69900;SDS011;57183;50.930;5.406;2022-11-20T06:40:50;34.13;;;18.10;;
69900;SDS011;57183;50.930;5.406;2022-11-20T06:43:16;35.38;;;18.20;;
69900;SDS011;57183;50.930;5.406;2022-11-20T06:45:41;34.05;;;18.92;;
69900;SDS011;57183;50.930;5.406;2022-11-20T06:48:08;35.53;;;19.23;;
69900;SDS011;57183;50.930;5.406;2022-11-20T06:50:35;31.38;;;17.30;;
69900;SDS011;57183;50.930;5.406;2022-11-20T06:53:01;35.97;;;19.55;;
69900;SDS011;57183;50.930;5.406;2022-11-20T06:55:28;29.80;;;16.67;;
69900;SDS011;57183;50.930;5.406;2022-11-20T06:57:54;41.25;;;20.08;;
69900;SDS011;57183;50.930;5.406;2022-11-20T07:00:20;35.75;;;19.70;;
69900;SDS011;57183;50.930;5.406;2022-11-20T07:02:46;32.85;;;18.00;;
69900;SDS011;57183;50.930;5.406;2022-11-20T07:05:12;29.80;;;16.90;;
69900;SDS011;57183;50.930;5.406;2022-11-20T07:07:37;40.17;;;19.77;;
69900;SDS011;57183;50.930;5.406;2022-11-20T07:10:03;36.03;;;21.83;;
69900;SDS011;57183;50.930;5.406;2022-11-20T07:12:29;33.53;;;20.58;;
69900;SDS011;57183;50.930;5.406;2022-11-20T07:14:55;35.65;;;18.70;;
69900;SDS011;57183;50.930;5.406;2022-11-20T07:17:21;33.90;;;18.40;;
69900;SDS011;57183;50.930;5.406;2022-11-20T07:19:46;35.55;;;19.20;;
69900;SDS011;57183;50.930;5.406;2022-11-20T07:22:12;39.15;;;19.98;;
69900;SDS011;57183;50.930;5.406;2022-11-20T07:24:38;36.67;;;20.67;;
69900;SDS011;57183;50.930;5.406;2022-11-20T07:27:04;41.47;;;23.48;;
69900;SDS011;57183;50.930;5.406;2022-11-20T07:29:30;45.40;;;26.05;;
69900;SDS011;57183;50.930;5.406;2022-11-20T07:31:56;38.92;;;21.25;;
69900;SDS011;57183;50.930;5.406;2022-11-20T07:34:22;36.72;;;18.83;;
69900;SDS011;57183;50.930;5.406;2022-11-20T07:36:48;37.60;;;19.50;;
69900;SDS011;57183;50.930;5.406;2022-11-20T07:39:13;33.72;;;19.77;;
69900;SDS011;57183;50.930;5.406;2022-11-20T07:41:39;35.67;;;17.05;;
69900;SDS011;57183;50.930;5.406;2022-11-20T07:44:04;35.60;;;20.50;;
69900;SDS011;57183;50.930;5.406;2022-11-20T07:46:30;42.08;;;20.92;;
69900;SDS011;57183;50.930;5.406;2022-11-20T07:48:56;37.90;;;19.10;;
69900;SDS011;57183;50.930;5.406;2022-11-20T07:51:22;37.75;;;21.13;;
69900;SDS011;57183;50.930;5.406;2022-11-20T07:53:50;36.22;;;20.20;;
69900;SDS011;57183;50.930;5.406;2022-11-20T07:56:16;42.42;;;20.48;;
69900;SDS011;57183;50.930;5.406;2022-11-20T07:58:42;38.63;;;19.92;;
69900;SDS011;57183;50.930;5.406;2022-11-20T08:01:07;38.60;;;20.15;;
69900;SDS011;57183;50.930;5.406;2022-11-20T08:03:33;37.03;;;20.00;;
69900;SDS011;57183;50.930;5.406;2022-11-20T08:05:59;36.95;;;19.90;;
69900;SDS011;57183;50.930;5.406;2022-11-20T08:08:26;37.90;;;20.67;;
69900;SDS011;57183;50.930;5.406;2022-11-20T08:10:52;36.33;;;20.25;;
69900;SDS011;57183;50.930;5.406;2022-11-20T08:16:22;40.67;;;21.13;;
69900;SDS011;57183;50.930;5.406;2022-11-20T08:18:48;40.40;;;21.17;;
69900;SDS011;57183;50.930;5.406;2022-11-20T08:21:14;32.08;;;18.30;;
69900;SDS011;57183;50.930;5.406;2022-11-20T08:23:40;35.10;;;19.63;;
69900;SDS011;57183;50.930;5.406;2022-11-20T08:26:05;36.22;;;21.05;;
69900;SDS011;57183;50.930;5.406;2022-11-20T08:28:31;37.30;;;19.88;;
69900;SDS011;57183;50.930;5.406;2022-11-20T08:30:57;51.35;;;24.10;;
69900;SDS011;57183;50.930;5.406;2022-11-20T08:33:24;50.28;;;22.58;;
69900;SDS011;57183;50.930;5.406;2022-11-20T08:35:50;45.03;;;22.58;;
69900;SDS011;57183;50.930;5.406;2022-11-20T08:38:16;41.13;;;25.40;;
69900;SDS011;57183;50.930;5.406;2022-11-20T08:40:41;37.85;;;22.98;;
69900;SDS011;57183;50.930;5.406;2022-11-20T08:43:27;32.22;;;19.13;;
69900;SDS011;57183;50.930;5.406;2022-11-20T08:45:52;39.20;;;21.52;;
69900;SDS011;57183;50.930;5.406;2022-11-20T08:48:18;37.47;;;19.45;;
69900;SDS011;57183;50.930;5.406;2022-11-20T08:50:44;38.78;;;22.38;;
69900;SDS011;57183;50.930;5.406;2022-11-20T08:53:09;41.55;;;20.90;;
69900;SDS011;57183;50.930;5.406;2022-11-20T08:55:35;38.47;;;20.98;;
69900;SDS011;57183;50.930;5.406;2022-11-20T08:58:04;43.10;;;24.48;;
69900;SDS011;57183;50.930;5.406;2022-11-20T09:00:32;57.15;;;30.55;;
69900;SDS011;57183;50.930;5.406;2022-11-20T09:02:58;43.03;;;23.40;;
69900;SDS011;57183;50.930;5.406;2022-11-20T09:05:25;55.33;;;25.25;;
69900;SDS011;57183;50.930;5.406;2022-11-20T09:07:51;37.05;;;21.60;;
69900;SDS011;57183;50.930;5.406;2022-11-20T09:10:20;46.25;;;23.65;;
69900;SDS011;57183;50.930;5.406;2022-11-20T09:12:48;39.40;;;21.52;;
69900;SDS011;57183;50.930;5.406;2022-11-20T09:15:14;38.30;;;19.17;;
69900;SDS011;57183;50.930;5.406;2022-11-20T09:17:40;39.38;;;21.50;;
69900;SDS011;57183;50.930;5.406;2022-11-20T09:20:06;45.25;;;23.50;;
69900;SDS011;57183;50.930;5.406;2022-11-20T09:23:57;38.83;;;19.83;;
69900;SDS011;57183;50.930;5.406;2022-11-20T09:26:22;41.03;;;20.83;;
69900;SDS011;57183;50.930;5.406;2022-11-20T09:28:48;43.50;;;21.55;;
69900;SDS011;57183;50.930;5.406;2022-11-20T09:31:17;44.17;;;23.27;;
69900;SDS011;57183;50.930;5.406;2022-11-20T09:33:47;43.88;;;21.10;;
69900;SDS011;57183;50.930;5.406;2022-11-20T09:36:13;46.55;;;21.60;;
69900;SDS011;57183;50.930;5.406;2022-11-20T09:38:39;39.38;;;20.88;;
69900;SDS011;57183;50.930;5.406;2022-11-20T09:41:05;39.75;;;22.23;;
69900;SDS011;57183;50.930;5.406;2022-11-20T09:43:49;45.08;;;21.13;;
69900;SDS011;57183;50.930;5.406;2022-11-20T09:46:29;36.45;;;19.80;;
69900;SDS011;57183;50.930;5.406;2022-11-20T09:49:11;36.92;;;19.20;;
69900;SDS011;57183;50.930;5.406;2022-11-20T09:54:17;43.65;;;22.02;;
69900;SDS011;57183;50.930;5.406;2022-11-20T09:56:46;39.67;;;20.17;;
69900;SDS011;57183;50.930;5.406;2022-11-20T10:04:49;45.22;;;20.75;;
69900;SDS011;57183;50.930;5.406;2022-11-20T10:07:44;35.45;;;18.75;;
69900;SDS011;57183;50.930;5.406;2022-11-20T10:10:41;39.78;;;20.02;;
69900;SDS011;57183;50.930;5.406;2022-11-20T10:13:14;38.63;;;18.80;;
69900;SDS011;57183;50.930;5.406;2022-11-20T10:15:50;42.95;;;22.52;;
69900;SDS011;57183;50.930;5.406;2022-11-20T10:26:42;46.47;;;19.67;;
69900;SDS011;57183;50.930;5.406;2022-11-20T10:31:53;42.40;;;19.80;;
69900;SDS011;57183;50.930;5.406;2022-11-20T10:42:34;40.67;;;19.92;;
69900;SDS011;57183;50.930;5.406;2022-11-20T10:47:50;40.85;;;21.10;;
69900;SDS011;57183;50.930;5.406;2022-11-20T10:50:20;43.33;;;22.08;;
69900;SDS011;57183;50.930;5.406;2022-11-20T11:06:03;45.03;;;19.20;;
69900;SDS011;57183;50.930;5.406;2022-11-20T11:08:36;45.17;;;20.70;;
69900;SDS011;57183;50.930;5.406;2022-11-20T11:11:23;46.00;;;20.70;;
69900;SDS011;57183;50.930;5.406;2022-11-20T11:13:49;44.13;;;21.60;;
69900;SDS011;57183;50.930;5.406;2022-11-20T11:16:23;41.90;;;19.88;;
69900;SDS011;57183;50.930;5.406;2022-11-20T11:18:50;39.55;;;18.98;;
69900;SDS011;57183;50.930;5.406;2022-11-20T11:21:25;39.13;;;19.60;;
69900;SDS011;57183;50.930;5.406;2022-11-20T11:23:59;40.75;;;19.02;;
69900;SDS011;57183;50.930;5.406;2022-11-20T11:26:26;40.33;;;19.20;;
69900;SDS011;57183;50.930;5.406;2022-11-20T11:28:52;39.47;;;19.45;;
69900;SDS011;57183;50.930;5.406;2022-11-20T11:31:23;38.67;;;19.23;;
69900;SDS011;57183;50.930;5.406;2022-11-20T11:33:50;41.20;;;18.80;;
69900;SDS011;57183;50.930;5.406;2022-11-20T11:36:17;35.80;;;17.00;;
69900;SDS011;57183;50.930;5.406;2022-11-20T11:38:48;42.40;;;19.95;;
69900;SDS011;57183;50.930;5.406;2022-11-20T11:41:20;38.67;;;17.80;;
69900;SDS011;57183;50.930;5.406;2022-11-20T11:43:51;43.25;;;18.55;;
69900;SDS011;57183;50.930;5.406;2022-11-20T11:46:37;43.03;;;19.20;;
69900;SDS011;57183;50.930;5.406;2022-11-20T11:56:58;38.97;;;18.15;;
69900;SDS011;57183;50.930;5.406;2022-11-20T12:02:57;45.45;;;22.63;;
69900;SDS011;57183;50.930;5.406;2022-11-20T12:08:05;36.58;;;17.60;;
69900;SDS011;57183;50.930;5.406;2022-11-20T12:16:14;33.80;;;17.08;;
69900;SDS011;57183;50.930;5.406;2022-11-20T12:18:42;39.45;;;19.35;;
69900;SDS011;57183;50.930;5.406;2022-11-20T12:26:45;36.83;;;18.48;;
69900;SDS011;57183;50.930;5.406;2022-11-20T12:35:32;50.78;;;23.30;;
69900;SDS011;57183;50.930;5.406;2022-11-20T12:50:22;13.40;;;6.97;;
69900;SDS011;57183;50.930;5.406;2022-11-20T13:06:44;6.75;;;3.00;;
69900;SDS011;57183;50.930;5.406;2022-11-20T13:09:14;5.60;;;2.05;;
69900;SDS011;57183;50.930;5.406;2022-11-20T13:17:41;4.47;;;1.90;;
69900;SDS011;57183;50.930;5.406;2022-11-20T13:20:16;5.03;;;1.75;;
69900;SDS011;57183;50.930;5.406;2022-11-20T13:22:50;5.00;;;2.00;;
69900;SDS011;57183;50.930;5.406;2022-11-20T13:28:00;4.20;;;1.70;;
69900;SDS011;57183;50.930;5.406;2022-11-20T13:30:35;6.43;;;1.20;;
69900;SDS011;57183;50.930;5.406;2022-11-20T13:33:23;3.28;;;1.27;;
69900;SDS011;57183;50.930;5.406;2022-11-20T13:35:55;5.13;;;1.92;;
69900;SDS011;57183;50.930;5.406;2022-11-20T13:38:28;4.38;;;1.10;;
69900;SDS011;57183;50.930;5.406;2022-11-20T13:41:35;2.95;;;1.27;;
69900;SDS011;57183;50.930;5.406;2022-11-20T13:46:38;6.28;;;1.83;;
69900;SDS011;57183;50.930;5.406;2022-11-20T13:49:16;4.15;;;1.25;;
69900;SDS011;57183;50.930;5.406;2022-11-20T13:51:54;4.80;;;1.65;;
69900;SDS011;57183;50.930;5.406;2022-11-20T14:02:41;6.85;;;1.23;;
69900;SDS011;57183;50.930;5.406;2022-11-20T14:05:23;3.78;;;1.88;;
69900;SDS011;57183;50.930;5.406;2022-11-20T14:07:49;4.15;;;1.40;;
69900;SDS011;57183;50.930;5.406;2022-11-20T14:10:34;4.68;;;1.45;;
69900;SDS011;57183;50.930;5.406;2022-11-20T14:13:10;5.13;;;2.00;;
69900;SDS011;57183;50.930;5.406;2022-11-20T14:15:43;5.40;;;1.70;;
69900;SDS011;57183;50.930;5.406;2022-11-20T14:18:13;4.00;;;1.65;;
69900;SDS011;57183;50.930;5.406;2022-11-20T14:20:40;5.50;;;2.47;;
69900;SDS011;57183;50.930;5.406;2022-11-20T14:23:08;4.07;;;1.75;;
69900;SDS011;57183;50.930;5.406;2022-11-20T14:25:35;8.55;;;2.88;;
69900;SDS011;57183;50.930;5.406;2022-11-20T14:28:02;3.75;;;1.92;;
69900;SDS011;57183;50.930;5.406;2022-11-20T14:30:37;5.95;;;3.38;;
69900;SDS011;57183;50.930;5.406;2022-11-20T14:33:13;7.22;;;2.78;;
69900;SDS011;57183;50.930;5.406;2022-11-20T14:35:50;4.28;;;2.22;;
69900;SDS011;57183;50.930;5.406;2022-11-20T14:38:19;4.53;;;2.13;;
69900;SDS011;57183;50.930;5.406;2022-11-20T14:41:09;3.70;;;2.30;;
69900;SDS011;57183;50.930;5.406;2022-11-20T14:43:50;3.53;;;2.33;;
69900;SDS011;57183;50.930;5.406;2022-11-20T14:46:19;4.25;;;1.92;;
69900;SDS011;57183;50.930;5.406;2022-11-20T14:48:49;5.10;;;2.65;;
69900;SDS011;57183;50.930;5.406;2022-11-20T14:56:39;13.93;;;5.32;;
69900;SDS011;57183;50.930;5.406;2022-11-20T14:59:05;7.43;;;3.83;;
69900;SDS011;57183;50.930;5.406;2022-11-20T15:01:32;6.85;;;2.22;;
69900;SDS011;57183;50.930;5.406;2022-11-20T15:04:05;4.68;;;2.65;;
69900;SDS011;57183;50.930;5.406;2022-11-20T15:06:32;3.90;;;2.75;;
69900;SDS011;57183;50.930;5.406;2022-11-20T15:08:58;5.82;;;2.10;;
69900;SDS011;57183;50.930;5.406;2022-11-20T15:11:33;3.63;;;2.42;;
69900;SDS011;57183;50.930;5.406;2022-11-20T15:14:08;5.40;;;2.72;;
69900;SDS011;57183;50.930;5.406;2022-11-20T15:16:34;7.18;;;2.60;;
69900;SDS011;57183;50.930;5.406;2022-11-20T15:19:00;5.72;;;2.85;;
69900;SDS011;57183;50.930;5.406;2022-11-20T15:21:33;4.95;;;3.45;;
69900;SDS011;57183;50.930;5.406;2022-11-20T15:23:58;7.10;;;3.67;;
69900;SDS011;57183;50.930;5.406;2022-11-20T15:26:26;9.15;;;4.10;;
69900;SDS011;57183;50.930;5.406;2022-11-20T15:28:52;4.82;;;2.17;;
69900;SDS011;57183;50.930;5.406;2022-11-20T15:31:19;3.28;;;2.65;;
69900;SDS011;57183;50.930;5.406;2022-11-20T15:33:47;2.90;;;2.25;;
69900;SDS011;57183;50.930;5.406;2022-11-20T15:36:13;5.80;;;3.13;;
69900;SDS011;57183;50.930;5.406;2022-11-20T15:38:39;4.97;;;2.50;;
69900;SDS011;57183;50.930;5.406;2022-11-20T15:41:05;5.65;;;2.28;;
69900;SDS011;57183;50.930;5.406;2022-11-20T15:43:32;7.35;;;2.75;;
69900;SDS011;57183;50.930;5.406;2022-11-20T15:46:02;3.70;;;3.40;;
69900;SDS011;57183;50.930;5.406;2022-11-20T15:48:32;4.95;;;2.65;;
69900;SDS011;57183;50.930;5.406;2022-11-20T15:53:36;3.30;;;2.58;;
69900;SDS011;57183;50.930;5.406;2022-11-20T15:56:03;4.53;;;2.47;;
69900;SDS011;57183;50.930;5.406;2022-11-20T15:58:29;2.90;;;2.30;;
69900;SDS011;57183;50.930;5.406;2022-11-20T16:00:55;3.08;;;2.67;;
69900;SDS011;57183;50.930;5.406;2022-11-20T16:03:21;3.40;;;2.05;;
69900;SDS011;57183;50.930;5.406;2022-11-20T16:05:47;4.75;;;2.25;;
69900;SDS011;57183;50.930;5.406;2022-11-20T16:08:13;2.03;;;1.90;;
69900;SDS011;57183;50.930;5.406;2022-11-20T16:10:39;2.13;;;1.77;;
69900;SDS011;57183;50.930;5.406;2022-11-20T16:13:11;3.03;;;1.90;;
69900;SDS011;57183;50.930;5.406;2022-11-20T16:15:58;3.15;;;1.40;;
69900;SDS011;57183;50.930;5.406;2022-11-20T16:18:26;2.70;;;1.80;;
69900;SDS011;57183;50.930;5.406;2022-11-20T16:20:52;2.58;;;1.80;;
69900;SDS011;57183;50.930;5.406;2022-11-20T16:23:18;2.45;;;1.77;;
69900;SDS011;57183;50.930;5.406;2022-11-20T16:25:45;3.42;;;1.90;;
69900;SDS011;57183;50.930;5.406;2022-11-20T16:28:11;3.42;;;2.10;;
69900;SDS011;57183;50.930;5.406;2022-11-20T16:30:37;3.50;;;2.35;;
69900;SDS011;57183;50.930;5.406;2022-11-20T16:33:03;3.30;;;2.65;;
69900;SDS011;57183;50.930;5.406;2022-11-20T16:35:30;3.95;;;2.70;;
69900;SDS011;57183;50.930;5.406;2022-11-20T16:37:56;2.58;;;2.35;;
69900;SDS011;57183;50.930;5.406;2022-11-20T16:40:23;3.40;;;3.10;;
69900;SDS011;57183;50.930;5.406;2022-11-20T16:42:50;9.80;;;4.47;;
69900;SDS011;57183;50.930;5.406;2022-11-20T16:45:16;4.57;;;3.03;;
69900;SDS011;57183;50.930;5.406;2022-11-20T16:47:42;6.25;;;3.10;;
69900;SDS011;57183;50.930;5.406;2022-11-20T16:50:08;4.85;;;3.00;;
69900;SDS011;57183;50.930;5.406;2022-11-20T16:52:34;3.35;;;2.80;;
69900;SDS011;57183;50.930;5.406;2022-11-20T16:55:00;8.13;;;3.17;;
69900;SDS011;57183;50.930;5.406;2022-11-20T16:57:29;5.25;;;3.95;;